Wetterstation Vordersexau
Wetterdaten: Woche 31.12.12 - 06.01.13 (KW1)
Datum Zeit Temp. A. Feuchte A. Luftdruck Regen Wind Richtung Taupunkt Windchill Windben
31.12.2012 00:00 6,2 C 75 % 1024,0 hPa 0,0 l/m 5,8 km/h W-NW 2,1 C 6,2 C 3,2 km/h
31.12.2012 01:00 7,2 C 73 % 1023,8 hPa 0,0 l/m 7,1 km/h W-SW 2,7 C 6,6 C 4,0 km/h
31.12.2012 02:00 7,9 C 71 % 1023,6 hPa 0,0 l/m 11,7 km/h W 3,0 C 4,3 C 6,5 km/h
31.12.2012 03:00 8,1 C 72 % 1023,2 hPa 0,0 l/m 11,0 km/h W-SW 3,4 C 4,9 C 6,1 km/h
31.12.2012 04:00 7,0 C 74 % 1022,7 hPa 0,0 l/m 6,5 km/h W-SW 2,7 C 6,9 C 3,6 km/h
31.12.2012 05:00 6,3 C 76 % 1022,2 hPa 0,0 l/m 0,0 km/h SW 2,4 C 6,3 C 0,0 km/h
31.12.2012 06:00 6,4 C 76 % 1021,8 hPa 0,0 l/m 3,2 km/h W-SW 2,5 C 6,4 C 1,8 km/h
31.12.2012 07:00 7,0 C 74 % 1021,3 hPa 0,0 l/m 10,4 km/h SW 2,7 C 4,0 C 5,8 km/h
31.12.2012 08:00 6,6 C 75 % 1021,3 hPa 0,0 l/m 11,7 km/h W-SW 2,5 C 2,8 C 6,5 km/h
31.12.2012 09:00 7,5 C 75 % 1021,0 hPa 0,0 l/m 24,0 km/h W 3,4 C -1,3 C 13,3 km/h
31.12.2012 10:00 8,5 C 72 % 1020,7 hPa 0,0 l/m 5,2 km/h W 3,7 C 8,5 C 2,9 km/h
31.12.2012 11:00 10,8 C 66 % 1020,0 hPa 0,0 l/m 12,3 km/h W-SW 4,7 C 7,3 C 6,8 km/h
31.12.2012 12:00 10,6 C 66 % 1018,8 hPa 0,0 l/m 13,0 km/h SW 4,5 C 6,7 C 7,2 km/h
31.12.2012 13:00 10,1 C 64 % 1017,8 hPa 0,0 l/m 13,0 km/h W 3,6 C 6,1 C 7,2 km/h
31.12.2012 14:00 10,9 C 62 % 1016,9 hPa 0,0 l/m 21,4 km/h W 3,9 C 4,0 C 11,9 km/h
31.12.2012 15:00 9,3 C 65 % 1016,1 hPa 0,0 l/m 2,6 km/h W 3,1 C 9,3 C 1,4 km/h
31.12.2012 16:00 8,4 C 68 % 1015,3 hPa 0,0 l/m 0,0 km/h S-SO 2,8 C 8,4 C 0,0 km/h
31.12.2012 17:00 5,2 C 77 % 1014,6 hPa 0,0 l/m 3,9 km/h S-SO 1,5 C 5,2 C 2,2 km/h
31.12.2012 18:00 3,5 C 82 % 1014,1 hPa 0,0 l/m 0,0 km/h S-SO 0,7 C 3,5 C 0,0 km/h
31.12.2012 19:00 2,5 C 84 % 1013,4 hPa 0,0 l/m 4,5 km/h O-NO 0,1 C 2,5 C 2,5 km/h
31.12.2012 20:00 2,9 C 84 % 1012,5 hPa 0,0 l/m 1,3 km/h S-SO 0,5 C 2,9 C 0,7 km/h
31.12.2012 21:00 1,4 C 85 % 1011,9 hPa 0,0 l/m 0,0 km/h S -0,8 C 1,4 C 0,0 km/h
31.12.2012 22:00 2,1 C 84 % 1011,0 hPa 0,0 l/m 0,0 km/h SW -0,3 C 2,1 C 0,0 km/h
31.12.2012 23:00 7,5 C 64 % 1010,5 hPa 0,0 l/m 6,5 km/h SW 1,1 C 7,4 C 3,6 km/h
01.01.2013 00:00 6,3 C 65 % 1009,9 hPa 0,0 l/m 0,0 km/h S-SO 0,2 C 6,3 C 0,0 km/h
01.01.2013 01:00 4,1 C 70 % 1009,5 hPa 0,0 l/m 1,3 km/h S-SO -0,9 C 4,1 C 0,7 km/h
01.01.2013 02:00 1,8 C 78 % 1009,3 hPa 0,0 l/m 0,0 km/h S-SW -1,6 C 1,8 C 0,0 km/h
01.01.2013 03:00 4,9 C 74 % 1009,1 hPa 0,0 l/m 9,1 km/h SW 0,7 C 2,6 C 5,0 km/h
01.01.2013 04:00 6,4 C 67 % 1008,7 hPa 0,0 l/m 9,7 km/h W 0,7 C 3,8 C 5,4 km/h
01.01.2013 05:00 7,3 C 65 % 1007,9 hPa 0,0 l/m 20,1 km/h S-SW 1,2 C -0,2 C 11,2 km/h
01.01.2013 06:00 7,8 C 65 % 1007,8 hPa 0,0 l/m 13,0 km/h S-SW 1,6 C 3,4 C 7,2 km/h
01.01.2013 07:00 7,1 C 66 % 1008,0 hPa 0,0 l/m 0,0 km/h W 1,2 C 7,1 C 0,0 km/h
01.01.2013 08:00 7,6 C 63 % 1007,6 hPa 0,0 l/m 18,8 km/h W 1,0 C 0,6 C 10,4 km/h
01.01.2013 09:00 8,3 C 65 % 1007,8 hPa 0,0 l/m 22,7 km/h W-NW 2,1 C 0,2 C 12,6 km/h
01.01.2013 10:00 8,0 C 71 % 1008,3 hPa 0,0 l/m 15,6 km/h W 3,1 C 2,4 C 8,6 km/h
01.01.2013 11:00 8,1 C 72 % 1008,3 hPa 0,0 l/m 0,0 km/h W 3,4 C 8,1 C 0,0 km/h
01.01.2013 12:00 8,4 C 77 % 1008,4 hPa 0,0 l/m 3,2 km/h W 4,6 C 8,4 C 1,8 km/h
01.01.2013 13:00 8,6 C 77 % 1008,4 hPa 0,0 l/m 20,1 km/h W 4,8 C 1,4 C 11,2 km/h
01.01.2013 14:00 7,6 C 82 % 1008,7 hPa 0,0 l/m 23,3 km/h W 4,7 C -0,9 C 13,0 km/h
01.01.2013 15:00 8,0 C 80 % 1009,0 hPa 0,0 l/m 13,0 km/h W-SW 4,8 C 3,7 C 7,2 km/h
01.01.2013 16:00 7,9 C 79 % 1009,3 hPa 0,0 l/m 21,4 km/h W 4,5 C 0,1 C 11,9 km/h
01.01.2013 17:00 7,6 C 79 % 1009,7 hPa 0,0 l/m 9,7 km/h W 4,2 C 5,1 C 5,4 km/h
01.01.2013 18:00 7,6 C 79 % 1010,1 hPa 0,0 l/m 20,7 km/h W-NW 4,2 C -0,1 C 11,5 km/h
01.01.2013 19:00 5,9 C 85 % 1011,2 hPa 0,0 l/m 0,0 km/h W-NW 3,6 C 5,9 C 0,0 km/h
01.01.2013 20:00 5,4 C 85 % 1011,7 hPa 0,4 l/m 0,0 km/h S-SO 3,1 C 5,4 C 0,0 km/h
01.01.2013 21:00 5,3 C 85 % 1012,6 hPa 0,4 l/m 0,0 km/h S-SO 3,0 C 5,3 C 0,0 km/h
01.01.2013 22:00 5,1 C 85 % 1013,7 hPa 0,7 l/m 0,0 km/h W 2,8 C 5,1 C 0,0 km/h
01.01.2013 23:00 4,8 C 84 % 1014,4 hPa 0,0 l/m 0,0 km/h W-NW 2,3 C 4,8 C 0,0 km/h
02.01.2013 00:00 3,2 C 84 % 1015,4 hPa 0,0 l/m 0,0 km/h SO 0,8 C 3,2 C 0,0 km/h
02.01.2013 01:00 2,1 C 85 % 1016,0 hPa 0,0 l/m 0,0 km/h S-SO -0,2 C 2,1 C 0,0 km/h
02.01.2013 02:00 0,9 C 85 % 1016,6 hPa 0,0 l/m 0,0 km/h O-SO -1,3 C 0,9 C 0,0 km/h
02.01.2013 03:00 0,6 C 83 % 1017,5 hPa 0,0 l/m 0,0 km/h O -1,9 C 0,6 C 0,0 km/h
02.01.2013 04:00 0,9 C 83 % 1017,9 hPa 0,0 l/m 0,0 km/h N-NW -1,7 C 0,9 C 0,0 km/h
02.01.2013 05:00 1,2 C 81 % 1018,5 hPa 0,0 l/m 0,0 km/h O-SO -1,7 C 1,2 C 0,0 km/h
02.01.2013 06:00 1,4 C 80 % 1019,4 hPa 0,0 l/m 0,0 km/h O-SO -1,7 C 1,4 C 0,0 km/h
02.01.2013 07:00 1,3 C 80 % 1020,0 hPa 0,0 l/m 0,0 km/h SO -1,8 C 1,3 C 0,0 km/h
02.01.2013 08:00 1,5 C 78 % 1021,7 hPa 0,0 l/m 0,0 km/h NO -1,9 C 1,5 C 0,0 km/h
02.01.2013 09:00 1,9 C 79 % 1022,6 hPa 0,0 l/m 0,0 km/h O-SO -1,3 C 1,9 C 0,0 km/h
02.01.2013 10:00 3,4 C 74 % 1023,4 hPa 0,0 l/m 0,0 km/h W-NW -0,8 C 3,4 C 0,0 km/h
02.01.2013 11:00 11,9 C 80 % 1023,6 hPa 0,0 l/m 0,0 km/h W 8,6 C 11,9 C 0,0 km/h
02.01.2013 12:00 11,7 C 63 % 1024,0 hPa 0,0 l/m 0,0 km/h NW 4,9 C 11,7 C 0,0 km/h
02.01.2013 13:00 6,2 C 72 % 1024,4 hPa 0,0 l/m 0,0 km/h SW 1,5 C 6,2 C 0,0 km/h
02.01.2013 14:00 6,7 C 75 % 1024,8 hPa 0,0 l/m 1,3 km/h S 2,6 C 6,7 C 0,7 km/h
02.01.2013 15:00 8,4 C 72 % 1025,3 hPa 0,0 l/m 0,0 km/h S 3,7 C 8,4 C 0,0 km/h
02.01.2013 16:00 3,8 C 78 % 1026,1 hPa 0,0 l/m 0,0 km/h O-NO 0,3 C 3,8 C 0,0 km/h
02.01.2013 17:00 1,9 C 83 % 1027,1 hPa 0,0 l/m 0,0 km/h SO -0,7 C 1,9 C 0,0 km/h
02.01.2013 18:00 1,3 C 85 % 1027,8 hPa 0,0 l/m 0,0 km/h S-SO -0,9 C 1,3 C 0,0 km/h
02.01.2013 19:00 0,2 C 85 % 1028,4 hPa 0,0 l/m 0,0 km/h SO -2,0 C 0,2 C 0,0 km/h
02.01.2013 20:00 -0,4 C 86 % 1028,9 hPa 0,0 l/m 0,0 km/h S-SO -2,4 C -0,4 C 0,0 km/h
02.01.2013 21:00 -1,1 C 85 % 1029,5 hPa 0,0 l/m 1,3 km/h O -3,3 C -1,1 C 0,7 km/h
02.01.2013 22:00 -1,4 C 85 % 1029,6 hPa 0,0 l/m 0,0 km/h SO -3,6 C -1,4 C 0,0 km/h
02.01.2013 23:00 -1,8 C 85 % 1030,3 hPa 0,0 l/m 0,0 km/h O -4,0 C -1,8 C 0,0 km/h
03.01.2013 00:00 -2,0 C 85 % 1030,6 hPa 0,0 l/m 0,0 km/h O -4,2 C -2,0 C 0,0 km/h
03.01.2013 01:00 -2,2 C 84 % 1030,9 hPa 0,0 l/m 0,0 km/h O-SO -4,5 C -2,2 C 0,0 km/h
03.01.2013 02:00 -2,1 C 84 % 1031,6 hPa 0,0 l/m 0,0 km/h O -4,4 C -2,1 C 0,0 km/h
03.01.2013 03:00 -2,2 C 83 % 1031,9 hPa 0,0 l/m 0,0 km/h S-SO -4,7 C -2,2 C 0,0 km/h
03.01.2013 04:00 -0,7 C 81 % 1032,2 hPa 0,0 l/m 1,9 km/h S-SO -3,5 C -0,7 C 1,1 km/h
03.01.2013 05:00 -0,8 C 81 % 1032,5 hPa 0,0 l/m 0,0 km/h S-SO -3,6 C -0,8 C 0,0 km/h
03.01.2013 06:00 -1,5 C 82 % 1032,3 hPa 0,0 l/m 0,0 km/h S -4,2 C -1,5 C 0,0 km/h
03.01.2013 07:00 -0,7 C 81 % 1033,2 hPa 0,0 l/m 1,9 km/h NO -3,5 C -0,7 C 1,1 km/h
03.01.2013 08:00 -0,7 C 81 % 1033,0 hPa 0,0 l/m 1,9 km/h S-SO -3,5 C -0,7 C 1,1 km/h
03.01.2013 09:00 2,9 C 71 % 1034,0 hPa 0,0 l/m 0,0 km/h O-SO -1,8 C 2,9 C 0,0 km/h
03.01.2013 10:00 1,9 C 82 % 1034,4 hPa 0,0 l/m 0,0 km/h W-NW -0,8 C 1,9 C 0,0 km/h
03.01.2013 11:00 4,1 C 86 % 1035,0 hPa 0,0 l/m 0,0 km/h W 2,0 C 4,1 C 0,0 km/h
03.01.2013 12:00 5,2 C 80 % 1034,7 hPa 0,4 l/m 1,9 km/h W 2,0 C 5,2 C 1,1 km/h
03.01.2013 13:00 4,8 C 83 % 1034,8 hPa 0,0 l/m 1,9 km/h S-SW 2,2 C 4,8 C 1,1 km/h
03.01.2013 14:00 6,1 C 83 % 1034,4 hPa 0,0 l/m 0,0 km/h S-SO 3,4 C 6,1 C 0,0 km/h
03.01.2013 15:00 6,1 C 82 % 1034,6 hPa 0,0 l/m 0,0 km/h O 3,3 C 6,1 C 0,0 km/h
03.01.2013 16:00 5,8 C 84 % 1034,9 hPa 0,0 l/m 0,0 km/h S-SW 3,3 C 5,8 C 0,0 km/h
03.01.2013 17:00 5,4 C 85 % 1035,4 hPa 0,0 l/m 0,0 km/h S-SO 3,1 C 5,4 C 0,0 km/h
03.01.2013 18:00 5,2 C 85 % 1035,7 hPa 0,0 l/m 0,0 km/h NO 2,9 C 5,2 C 0,0 km/h
03.01.2013 19:00 5,2 C 86 % 1035,5 hPa 0,0 l/m 0,0 km/h O-NO 3,1 C 5,2 C 0,0 km/h
03.01.2013 20:00 5,1 C 86 % 1035,8 hPa 0,0 l/m 0,0 km/h SO 3,0 C 5,1 C 0,0 km/h
03.01.2013 21:00 4,5 C 85 % 1036,1 hPa 0,0 l/m 0,0 km/h O-SO 2,2 C 4,5 C 0,0 km/h
03.01.2013 22:00 4,9 C 85 % 1036,5 hPa 0,0 l/m 0,0 km/h S-SO 2,6 C 4,9 C 0,0 km/h
03.01.2013 23:00 4,6 C 84 % 1036,5 hPa 0,0 l/m 0,0 km/h O-NO 2,1 C 4,6 C 0,0 km/h
04.01.2013 00:00 3,9 C 84 % 1036,5 hPa 0,0 l/m 0,0 km/h O-NO 1,4 C 3,9 C 0,0 km/h
04.01.2013 01:00 4,1 C 82 % 1036,3 hPa 0,0 l/m 0,0 km/h S-SO 1,3 C 4,1 C 0,0 km/h
04.01.2013 02:00 4,8 C 81 % 1036,2 hPa 0,0 l/m 0,0 km/h S-SO 1,8 C 4,8 C 0,0 km/h
04.01.2013 03:00 4,8 C 81 % 1036,6 hPa 0,0 l/m 0,0 km/h S-SO 1,8 C 4,8 C 0,0 km/h
04.01.2013 04:00 5,0 C 81 % 1036,3 hPa 0,0 l/m 0,0 km/h S-SO 2,0 C 5,0 C 0,0 km/h
04.01.2013 05:00 5,2 C 81 % 1036,3 hPa 0,0 l/m 0,0 km/h SO 2,2 C 5,2 C 0,0 km/h
04.01.2013 06:00 5,2 C 80 % 1035,7 hPa 0,0 l/m 0,0 km/h SO 2,0 C 5,2 C 0,0 km/h
04.01.2013 07:00 5,3 C 79 % 1035,7 hPa 0,0 l/m 0,0 km/h SO 2,0 C 5,3 C 0,0 km/h
04.01.2013 08:00 5,4 C 79 % 1035,9 hPa 0,0 l/m 0,0 km/h SO 2,1 C 5,4 C 0,0 km/h
04.01.2013 09:00 5,9 C 78 % 1036,1 hPa 0,0 l/m 0,0 km/h SO 2,4 C 5,9 C 0,0 km/h
04.01.2013 10:00 6,7 C 76 % 1036,2 hPa 0,4 l/m 0,0 km/h SO 2,8 C 6,7 C 0,0 km/h
04.01.2013 11:00 7,5 C 77 % 1036,5 hPa 0,4 l/m 0,0 km/h S-SO 3,7 C 7,5 C 0,0 km/h
04.01.2013 12:00 7,9 C 77 % 1035,7 hPa 0,0 l/m 0,0 km/h O-NO 4,1 C 7,9 C 0,0 km/h
04.01.2013 13:00 8,4 C 83 % 1035,1 hPa 0,0 l/m 0,0 km/h O-NO 5,7 C 8,4 C 0,0 km/h
04.01.2013 14:00 8,1 C 84 % 1035,0 hPa 0,0 l/m 0,0 km/h SO 5,6 C 8,1 C 0,0 km/h
04.01.2013 15:00 8,2 C 84 % 1034,2 hPa 0,0 l/m 0,0 km/h SO 5,7 C 8,2 C 0,0 km/h
04.01.2013 16:00 7,8 C 84 % 1034,5 hPa 0,0 l/m 0,0 km/h S-SO 5,3 C 7,8 C 0,0 km/h
04.01.2013 17:00 7,4 C 83 % 1034,2 hPa 0,0 l/m 0,0 km/h SO 4,7 C 7,4 C 0,0 km/h
04.01.2013 18:00 7,2 C 82 % 1034,2 hPa 0,0 l/m 0,0 km/h SO 4,3 C 7,2 C 0,0 km/h
04.01.2013 19:00 7,1 C 82 % 1033,8 hPa 0,0 l/m 0,0 km/h SO 4,2 C 7,1 C 0,0 km/h
04.01.2013 20:00 7,1 C 81 % 1033,8 hPa 0,0 l/m 0,0 km/h SO 4,1 C 7,1 C 0,0 km/h
04.01.2013 21:00 7,0 C 80 % 1033,9 hPa 0,0 l/m 0,0 km/h SO 3,8 C 7,0 C 0,0 km/h
04.01.2013 22:00 6,9 C 80 % 1033,6 hPa 0,0 l/m 0,0 km/h NO 3,7 C 6,9 C 0,0 km/h
04.01.2013 23:00 7,0 C 78 % 1033,4 hPa 0,0 l/m 0,0 km/h O-NO 3,4 C 7,0 C 0,0 km/h
05.01.2013 00:00 6,7 C 78 % 1033,0 hPa 0,0 l/m 0,0 km/h O-NO 3,1 C 6,7 C 0,0 km/h
05.01.2013 01:00 6,7 C 77 % 1032,7 hPa 0,0 l/m 0,0 km/h O-NO 3,0 C 6,7 C 0,0 km/h
05.01.2013 02:00 6,8 C 76 % 1032,6 hPa 0,0 l/m 0,0 km/h O-NO 2,9 C 6,8 C 0,0 km/h
05.01.2013 03:00 6,9 C 76 % 1032,4 hPa 0,0 l/m 0,0 km/h O-NO 3,0 C 6,9 C 0,0 km/h
05.01.2013 04:00 6,9 C 76 % 1032,0 hPa 0,0 l/m 0,0 km/h O-NO 3,0 C 6,9 C 0,0 km/h
05.01.2013 05:00 6,9 C 75 % 1031,8 hPa 0,0 l/m 0,0 km/h O-NO 2,8 C 6,9 C 0,0 km/h
05.01.2013 06:00 6,9 C 75 % 1031,8 hPa 0,0 l/m 0,0 km/h O-NO 2,8 C 6,9 C 0,0 km/h
05.01.2013 07:00 6,7 C 76 % 1031,8 hPa 0,0 l/m 0,0 km/h O-NO 2,8 C 6,7 C 0,0 km/h
05.01.2013 08:00 6,8 C 75 % 1032,3 hPa 0,0 l/m 0,0 km/h O-NO 2,7 C 6,8 C 0,0 km/h
05.01.2013 09:00 6,6 C 75 % 1032,4 hPa 0,0 l/m 0,0 km/h O 2,5 C 6,6 C 0,0 km/h
05.01.2013 10:00 6,9 C 75 % 1032,3 hPa 0,0 l/m 0,0 km/h W 2,8 C 6,9 C 0,0 km/h
05.01.2013 11:00 7,3 C 75 % 1032,4 hPa 0,0 l/m 0,0 km/h NO 3,2 C 7,3 C 0,0 km/h
05.01.2013 12:00 7,1 C 83 % 1032,2 hPa 0,0 l/m 0,0 km/h S-SW 4,4 C 7,1 C 0,0 km/h
05.01.2013 13:00 7,6 C 85 % 1031,8 hPa 0,0 l/m 1,9 km/h S-SO 5,2 C 7,6 C 1,1 km/h
05.01.2013 14:00 7,9 C 85 % 1031,5 hPa 0,0 l/m 0,0 km/h NO 5,5 C 7,9 C 0,0 km/h
05.01.2013 15:00 7,8 C 86 % 1031,6 hPa 0,0 l/m 0,0 km/h NO 5,6 C 7,8 C 0,0 km/h
05.01.2013 16:00 7,1 C 86 % 1031,6 hPa 0,0 l/m 0,0 km/h NO 4,9 C 7,1 C 0,0 km/h
05.01.2013 17:00 6,3 C 86 % 1031,7 hPa 0,0 l/m 0,0 km/h NO 4,1 C 6,3 C 0,0 km/h
05.01.2013 18:00 5,9 C 86 % 1031,9 hPa 0,0 l/m 0,0 km/h NO 3,7 C 5,9 C 0,0 km/h
05.01.2013 19:00 5,8 C 85 % 1031,8 hPa 0,0 l/m 0,0 km/h NO 3,5 C 5,8 C 0,0 km/h
05.01.2013 20:00 5,8 C 85 % 1032,0 hPa 0,0 l/m 0,0 km/h NO 3,5 C 5,8 C 0,0 km/h
05.01.2013 21:00 5,6 C 84 % 1032,0 hPa 0,0 l/m 0,0 km/h O-SO 3,1 C 5,6 C 0,0 km/h
05.01.2013 22:00 5,6 C 83 % 1031,6 hPa 0,0 l/m 0,0 km/h O-SO 2,9 C 5,6 C 0,0 km/h
05.01.2013 23:00 5,5 C 83 % 1031,5 hPa 0,0 l/m 0,0 km/h SO 2,8 C 5,5 C 0,0 km/h
06.01.2013 00:00 5,4 C 83 % 1031,4 hPa 0,0 l/m 0,0 km/h SO 2,7 C 5,4 C 0,0 km/h
06.01.2013 01:00 5,4 C 82 % 1031,7 hPa 0,0 l/m 0,0 km/h SO 2,6 C 5,4 C 0,0 km/h
06.01.2013 02:00 5,3 C 82 % 1031,9 hPa 0,0 l/m 0,0 km/h SO 2,5 C 5,3 C 0,0 km/h
06.01.2013 03:00 5,3 C 82 % 1031,7 hPa 0,0 l/m 0,0 km/h S 2,5 C 5,3 C 0,0 km/h
06.01.2013 04:00 5,3 C 81 % 1031,1 hPa 0,0 l/m 8,4 km/h S 2,3 C 3,6 C 4,7 km/h
06.01.2013 05:00 5,6 C 83 % 1030,2 hPa 0,0 l/m 1,3 km/h N 2,9 C 5,6 C 0,7 km/h
06.01.2013 06:00 5,6 C 85 % 1030,6 hPa 0,0 l/m 0,0 km/h N 3,3 C 5,6 C 0,0 km/h
06.01.2013 07:00 5,2 C 85 % 1030,1 hPa 0,0 l/m 0,0 km/h N 2,9 C 5,2 C 0,0 km/h
06.01.2013 08:00 5,2 C 84 % 1030,2 hPa 0,0 l/m 0,0 km/h N 2,7 C 5,2 C 0,0 km/h
06.01.2013 09:00 5,5 C 83 % 1030,0 hPa 0,0 l/m 0,0 km/h NW 2,8 C 5,5 C 0,0 km/h
06.01.2013 10:00 5,9 C 85 % 1029,9 hPa 0,0 l/m 0,0 km/h W-SW 3,6 C 5,9 C 0,0 km/h
06.01.2013 11:00 6,1 C 86 % 1030,3 hPa 0,0 l/m 1,3 km/h S-SW 3,9 C 6,1 C 0,7 km/h
06.01.2013 12:00 6,6 C 86 % 1030,1 hPa 0,0 l/m 0,6 km/h S 4,4 C 6,6 C 0,4 km/h
06.01.2013 13:00 7,2 C 85 % 1029,7 hPa 0,0 l/m 0,0 km/h NW 4,9 C 7,2 C 0,0 km/h
06.01.2013 14:00 8,1 C 83 % 1028,6 hPa 0,0 l/m 0,0 km/h N-NO 5,4 C 8,1 C 0,0 km/h
06.01.2013 15:00 7,6 C 83 % 1029,1 hPa 0,0 l/m 0,0 km/h N-NO 4,9 C 7,6 C 0,0 km/h
06.01.2013 16:00 7,1 C 84 % 1029,2 hPa 0,0 l/m 0,0 km/h W 4,6 C 7,1 C 0,0 km/h
06.01.2013 17:00 6,2 C 86 % 1028,9 hPa 0,0 l/m 0,0 km/h SW 4,0 C 6,2 C 0,0 km/h
06.01.2013 18:00 5,9 C 86 % 1029,1 hPa 0,0 l/m 0,0 km/h W 3,7 C 5,9 C 0,0 km/h
06.01.2013 19:00 6,0 C 86 % 1028,9 hPa 0,0 l/m 0,6 km/h S-SW 3,8 C 6,0 C 0,4 km/h
06.01.2013 20:00 5,9 C 86 % 1029,1 hPa 0,0 l/m 0,0 km/h S 3,7 C 5,9 C 0,0 km/h
06.01.2013 21:00 5,8 C 86 % 1028,8 hPa 0,0 l/m 0,0 km/h S-SO 3,6 C 5,8 C 0,0 km/h
06.01.2013 22:00 5,4 C 86 % 1028,9 hPa 0,0 l/m 0,0 km/h O 3,3 C 5,4 C 0,0 km/h
06.01.2013 23:00 5,3 C 86 % 1028,7 hPa 0,0 l/m 0,0 km/h NO 3,2 C 5,3 C 0,0 km/h
Min-Datum _ 03.01.13 31.12.12 01.01.13 - 31.12.12 - 03.01.13 03.01.13 31.12.12
_ Min-Zeit 01:19 14:19 08:19 - 05:19 - 03:19 01:19 05:19
Minimum _ -2,2 C 62 % 1007,6 hPa - 0,0 km/h - -4,7 C -2,2 C 0,0 km/h
Max-Datum _ 02.01.13 02.01.13 04.01.13 01.01.13 31.12.12 - 02.01.13 02.01.13 31.12.12
_ Max-Zeit 11:19 20:19 03:19 22:19 09:19 - 11:19 11:19 09:19
Maximum _ 11,9 C 86 % 1036,6 hPa 0,7 l/m 24,0 km/h
W
- 8,6 C 11,9 C 13,3 km/h
W
Durchschnitt _ 5,4 C 80 % 1026,0 hPa #2,5 l/m 2,5 km/h S-SO 2,1 C 4,7 C 1,4 km/h
www.sexauwetter.de